Station Historical Data
Daily Summary for July 26, 2017 Units:  Both    English   Metric
« Previous Day
Next Day »
Daily Weekly Monthly Yearly Custom
  High: Low: Average:
Temperature: 77.7 °F /  25.4 °C 53.3 °F /  11.8 °C 66.2 °F /  19 °C
Dew Point: 64.5 °F /  18.1 °C 51.0 °F /  10.6 °C 57.7 °F /  14.3 °C
Humidity: 92% 60% 75%
Wind Speed: 7.0mph /  11.3km/h - 1.6mph /  2.6km/h
Wind Gust: 11.0mph /  17.7km/h - -
Wind- - WSW
Pressure: 30.23 in /  1023.6 hPa 29.99 in /  1015.5 hPa -
Precipitation: 0.00 in /  0 mm    
Historical Graphs
 
 
Tabular Data for July 26, 2017
Time Temperature Dew Point Pressure Wind Wind Speed Wind Gust Humidity Rainfall Rate (Hourly)
00:00 58.3 °F /  14.6 °C 54.4 °F /  12.4 °C 30.23in /  1023.6hPa Calm     87% 0.00in /  0mm
00:05 58.2 °F /  14.6 °C 54.3 °F /  12.4 °C 30.23in /  1023.6hPa Calm     87% 0.00in /  0mm
00:10 58.0 °F /  14.4 °C 54.2 °F /  12.3 °C 30.22in /  1023.2hPa Calm     87% 0.00in /  0mm
00:15 57.9 °F /  14.4 °C 54.4 °F /  12.4 °C 30.22in /  1023.2hPa Calm     88% 0.00in /  0mm
00:20 58.1 °F /  14.5 °C 54.6 °F /  12.6 °C 30.22in /  1023.2hPa Calm     88% 0.00in /  0mm
00:25 58.5 °F /  14.7 °C 55.0 °F /  12.8 °C 30.22in /  1023.2hPa Calm     88% 0.00in /  0mm
00:30 58.6 °F /  14.8 °C 55.1 °F /  12.8 °C 30.22in /  1023.2hPa Calm     88% 0.00in /  0mm
00:35 58.3 °F /  14.6 °C 54.8 °F /  12.7 °C 30.22in /  1023.2hPa Calm     88% 0.00in /  0mm
00:40 58.3 °F /  14.6 °C 54.8 °F /  12.7 °C 30.22in /  1023.2hPa Calm     88% 0.00in /  0mm
00:45 58.2 °F /  14.6 °C 54.7 °F /  12.6 °C 30.22in /  1023.2hPa Calm     88% 0.00in /  0mm
00:50 58.2 °F /  14.6 °C 54.7 °F /  12.6 °C 30.22in /  1023.2hPa Calm     88% 0.00in /  0mm
00:55 58.0 °F /  14.4 °C 54.5 °F /  12.5 °C 30.22in /  1023.2hPa Calm     88% 0.00in /  0mm
01:00 57.9 °F /  14.4 °C 54.7 °F /  12.6 °C 30.22in /  1023.2hPa Calm     89% 0.00in /  0mm
01:05 57.9 °F /  14.4 °C 54.7 °F /  12.6 °C 30.22in /  1023.2hPa Calm     89% 0.00in /  0mm
01:10 57.8 °F /  14.3 °C 54.6 °F /  12.6 °C 30.22in /  1023.2hPa Calm     89% 0.00in /  0mm
01:15 57.6 °F /  14.2 °C 54.4 °F /  12.4 °C 30.22in /  1023.2hPa Calm     89% 0.00in /  0mm
01:20 57.3 °F /  14.1 °C 54.1 °F /  12.3 °C 30.22in /  1023.2hPa Calm     89% 0.00in /  0mm
01:25 57.0 °F /  13.9 °C 53.8 °F /  12.1 °C 30.21in /  1022.9hPa Calm     89% 0.00in /  0mm
01:30 57.0 °F /  13.9 °C 54.1 °F /  12.3 °C 30.21in /  1022.9hPa Calm     90% 0.00in /  0mm
01:35 56.8 °F /  13.8 °C 53.9 °F /  12.2 °C 30.21in /  1022.9hPa Calm     90% 0.00in /  0mm
01:40 56.6 °F /  13.7 °C 53.7 °F /  12.1 °C 30.22in /  1023.2hPa Calm     90% 0.00in /  0mm
01:45 56.4 °F /  13.6 °C 53.5 °F /  11.9 °C 30.22in /  1023.2hPa Calm     90% 0.00in /  0mm
01:50 56.2 °F /  13.4 °C 53.3 °F /  11.8 °C 30.22in /  1023.2hPa Calm     90% 0.00in /  0mm
01:55 56.0 °F /  13.3 °C 53.1 °F /  11.7 °C 30.22in /  1023.2hPa Calm     90% 0.00in /  0mm
02:00 56.2 °F /  13.4 °C 53.6 °F /  12 °C 30.22in /  1023.2hPa Calm     91% 0.00in /  0mm
02:05 56.3 °F /  13.5 °C 53.7 °F /  12.1 °C 30.22in /  1023.2hPa Calm     91% 0.00in /  0mm
02:10 56.4 °F /  13.6 °C 53.8 °F /  12.1 °C 30.21in /  1022.9hPa Calm     91% 0.00in /  0mm
02:15 56.4 °F /  13.6 °C 53.8 °F /  12.1 °C 30.21in /  1022.9hPa Calm     91% 0.00in /  0mm
02:20 56.3 °F /  13.5 °C 53.7 °F /  12.1 °C 30.21in /  1022.9hPa Calm     91% 0.00in /  0mm
02:25 56.1 °F /  13.4 °C 53.5 °F /  11.9 °C 30.21in /  1022.9hPa Calm     91% 0.00in /  0mm
02:30 56.0 °F /  13.3 °C 53.4 °F /  11.9 °C 30.21in /  1022.9hPa Calm     91% 0.00in /  0mm
02:35 55.7 °F /  13.2 °C 53.1 °F /  11.7 °C 30.21in /  1022.9hPa Calm     91% 0.00in /  0mm
02:40 55.9 °F /  13.3 °C 53.3 °F /  11.8 °C 30.21in /  1022.9hPa Calm     91% 0.00in /  0mm
02:45 55.8 °F /  13.2 °C 53.2 °F /  11.8 °C 30.21in /  1022.9hPa Calm     91% 0.00in /  0mm
02:50 55.8 °F /  13.2 °C 53.2 °F /  11.8 °C 30.21in /  1022.9hPa Calm     91% 0.00in /  0mm
02:55 55.7 °F /  13.2 °C 53.1 °F /  11.7 °C 30.20in /  1022.6hPa Calm     91% 0.00in /  0mm
03:00 55.7 °F /  13.2 °C 53.1 °F /  11.7 °C 30.20in /  1022.6hPa Calm     91% 0.00in /  0mm
03:05 55.7 °F /  13.2 °C 53.1 °F /  11.7 °C 30.20in /  1022.6hPa Calm     91% 0.00in /  0mm
03:10 55.5 °F /  13.1 °C 52.9 °F /  11.6 °C 30.20in /  1022.6hPa Calm     91% 0.00in /  0mm
03:15 55.4 °F /  13 °C 52.8 °F /  11.6 °C 30.20in /  1022.6hPa Calm     91% 0.00in /  0mm
03:20 55.4 °F /  13 °C 52.8 °F /  11.6 °C 30.20in /  1022.6hPa Calm     91% 0.00in /  0mm
03:25 55.2 °F /  12.9 °C 52.6 °F /  11.4 °C 30.20in /  1022.6hPa Calm     91% 0.00in /  0mm
03:30 55.1 °F /  12.8 °C 52.5 °F /  11.4 °C 30.20in /  1022.6hPa Calm     91% 0.00in /  0mm
03:35 54.8 °F /  12.7 °C 52.2 °F /  11.2 °C 30.20in /  1022.6hPa Calm     91% 0.00in /  0mm
03:40 54.7 °F /  12.6 °C 52.1 °F /  11.2 °C 30.20in /  1022.6hPa Calm     91% 0.00in /  0mm
03:45 54.5 °F /  12.5 °C 51.9 °F /  11.1 °C 30.20in /  1022.6hPa Calm     91% 0.00in /  0mm
03:50 54.5 °F /  12.5 °C 51.9 °F /  11.1 °C 30.20in /  1022.6hPa Calm     91% 0.00in /  0mm
03:55 54.4 °F /  12.4 °C 52.1 °F /  11.2 °C 30.20in /  1022.6hPa Calm     92% 0.00in /  0mm
04:00 54.3 °F /  12.4 °C 51.7 °F /  10.9 °C 30.20in /  1022.6hPa Calm     91% 0.00in /  0mm
04:05 54.4 °F /  12.4 °C 51.8 °F /  11 °C 30.20in /  1022.6hPa Calm     91% 0.00in /  0mm
04:10 54.3 °F /  12.4 °C 51.7 °F /  10.9 °C 30.20in /  1022.6hPa Calm     91% 0.00in /  0mm
04:15 54.2 °F /  12.3 °C 51.9 °F /  11.1 °C 30.20in /  1022.6hPa Calm     92% 0.00in /  0mm
04:20 54.3 °F /  12.4 °C 52.0 °F /  11.1 °C 30.20in /  1022.6hPa Calm     92% 0.00in /  0mm
04:25 54.2 °F /  12.3 °C 51.9 °F /  11.1 °C 30.21in /  1022.9hPa Calm     92% 0.00in /  0mm
04:30 54.1 °F /  12.3 °C 51.8 °F /  11 °C 30.20in /  1022.6hPa Calm     92% 0.00in /  0mm
04:35 54.1 °F /  12.3 °C 51.8 °F /  11 °C 30.21in /  1022.9hPa Calm     92% 0.00in /  0mm
04:40 54.1 °F /  12.3 °C 51.8 °F /  11 °C 30.20in /  1022.6hPa Calm     92% 0.00in /  0mm
04:45 54.1 °F /  12.3 °C 51.8 °F /  11 °C 30.21in /  1022.9hPa Calm     92% 0.00in /  0mm
04:50 54.1 °F /  12.3 °C 51.8 °F /  11 °C 30.21in /  1022.9hPa Calm     92% 0.00in /  0mm
04:55 54.1 °F /  12.3 °C 51.8 °F /  11 °C 30.20in /  1022.6hPa Calm     92% 0.00in /  0mm
05:00 54.1 °F /  12.3 °C 51.8 °F /  11 °C 30.20in /  1022.6hPa Calm     92% 0.00in /  0mm
05:05 54.1 °F /  12.3 °C 51.8 °F /  11 °C 30.20in /  1022.6hPa Calm     92% 0.00in /  0mm
05:10 54.0 °F /  12.2 °C 51.7 °F /  10.9 °C 30.20in /  1022.6hPa Calm     92% 0.00in /  0mm
05:15 54.1 °F /  12.3 °C 51.8 °F /  11 °C 30.21in /  1022.9hPa Calm     92% 0.00in /  0mm
05:20 53.9 °F /  12.2 °C 51.6 °F /  10.9 °C 30.21in /  1022.9hPa Calm     92% 0.00in /  0mm
05:25 53.7 °F /  12.1 °C 51.4 °F /  10.8 °C 30.21in /  1022.9hPa Calm     92% 0.00in /  0mm
05:30 53.4 °F /  11.9 °C 51.1 °F /  10.6 °C 30.21in /  1022.9hPa Calm     92% 0.00in /  0mm
05:35 53.6 °F /  12 °C 51.3 °F /  10.7 °C 30.21in /  1022.9hPa Calm     92% 0.00in /  0mm
05:40 53.6 °F /  12 °C 51.3 °F /  10.7 °C 30.21in /  1022.9hPa Calm     92% 0.00in /  0mm
05:45 53.5 °F /  11.9 °C 51.2 °F /  10.7 °C 30.22in /  1023.2hPa Calm     92% 0.00in /  0mm
05:55 53.5 °F /  11.9 °C 51.2 °F /  10.7 °C 30.21in /  1022.9hPa Calm     92% 0.00in /  0mm
06:00 53.4 °F /  11.9 °C 51.1 °F /  10.6 °C 30.21in /  1022.9hPa Calm     92% 0.00in /  0mm
06:05 53.4 °F /  11.9 °C 51.1 °F /  10.6 °C 30.22in /  1023.2hPa Calm     92% 0.00in /  0mm
06:10 53.3 °F /  11.8 °C 51.0 °F /  10.6 °C 30.22in /  1023.2hPa Calm     92% 0.00in /  0mm
06:15 53.3 °F /  11.8 °C 51.0 °F /  10.6 °C 30.23in /  1023.6hPa Calm     92% 0.00in /  0mm
06:20 53.3 °F /  11.8 °C 51.0 °F /  10.6 °C 30.22in /  1023.2hPa Calm     92% 0.00in /  0mm
06:25 53.4 °F /  11.9 °C 51.1 °F /  10.6 °C 30.22in /  1023.2hPa Calm     92% 0.00in /  0mm
06:30 53.6 °F /  12 °C 51.3 °F /  10.7 °C 30.22in /  1023.2hPa Calm     92% 0.00in /  0mm
06:35 53.7 °F /  12.1 °C 51.4 °F /  10.8 °C 30.21in /  1022.9hPa Calm     92% 0.00in /  0mm
06:40 53.8 °F /  12.1 °C 51.5 °F /  10.8 °C 30.21in /  1022.9hPa Calm     92% 0.00in /  0mm
06:45 54.0 °F /  12.2 °C 51.7 °F /  10.9 °C 30.22in /  1023.2hPa Calm     92% 0.00in /  0mm
06:50 54.2 °F /  12.3 °C 51.9 °F /  11.1 °C 30.22in /  1023.2hPa Calm     92% 0.00in /  0mm
06:55 54.5 °F /  12.5 °C 52.2 °F /  11.2 °C 30.22in /  1023.2hPa Calm     92% 0.00in /  0mm
07:00 54.8 °F /  12.7 °C 52.2 °F /  11.2 °C 30.21in /  1022.9hPa Calm     91% 0.00in /  0mm
07:05 55.1 °F /  12.8 °C 52.5 °F /  11.4 °C 30.21in /  1022.9hPa Calm     91% 0.00in /  0mm
07:10 55.3 °F /  12.9 °C 52.7 °F /  11.5 °C 30.21in /  1022.9hPa Calm     91% 0.00in /  0mm
07:15 55.7 °F /  13.2 °C 52.8 °F /  11.6 °C 30.20in /  1022.6hPa Calm   3.0mph /  4.8km/h 90% 0.00in /  0mm
07:20 56.2 °F /  13.4 °C 53.3 °F /  11.8 °C 30.20in /  1022.6hPa ESE 1.0mph /  1.6km/h 3.0mph /  4.8km/h 90% 0.00in /  0mm
07:25 56.6 °F /  13.7 °C 53.4 °F /  11.9 °C 30.20in /  1022.6hPa SSE 3.0mph /  4.8km/h 5.0mph /  8km/h 89% 0.00in /  0mm
07:30 56.8 °F /  13.8 °C 53.3 °F /  11.8 °C 30.20in /  1022.6hPa Calm   4.0mph /  6.4km/h 88% 0.00in /  0mm
07:35 57.1 °F /  13.9 °C 53.6 °F /  12 °C 30.20in /  1022.6hPa SSE 1.0mph /  1.6km/h 4.0mph /  6.4km/h 88% 0.00in /  0mm
07:40 57.3 °F /  14.1 °C 53.5 °F /  11.9 °C 30.19in /  1022.2hPa ESE 2.0mph /  3.2km/h 5.0mph /  8km/h 87% 0.00in /  0mm
07:45 57.6 °F /  14.2 °C 53.8 °F /  12.1 °C 30.20in /  1022.6hPa SE 1.0mph /  1.6km/h 4.0mph /  6.4km/h 87% 0.00in /  0mm
07:50 58.0 °F /  14.4 °C 53.8 °F /  12.1 °C 30.20in /  1022.6hPa East 2.0mph /  3.2km/h 3.0mph /  4.8km/h 86% 0.00in /  0mm
07:55 58.2 °F /  14.6 °C 54.0 °F /  12.2 °C 30.21in /  1022.9hPa Calm   3.0mph /  4.8km/h 86% 0.00in /  0mm
08:00 58.7 °F /  14.8 °C 54.2 °F /  12.3 °C 30.20in /  1022.6hPa SE 1.0mph /  1.6km/h 2.0mph /  3.2km/h 85% 0.00in /  0mm
08:05 59.1 °F /  15.1 °C 54.6 °F /  12.6 °C 30.20in /  1022.6hPa Calm   2.0mph /  3.2km/h 85% 0.00in /  0mm
08:10 59.6 °F /  15.3 °C 55.1 °F /  12.8 °C 30.20in /  1022.6hPa Calm   2.0mph /  3.2km/h 85% 0.00in /  0mm
08:15 59.9 °F /  15.5 °C 54.7 °F /  12.6 °C 30.20in /  1022.6hPa ENE 1.0mph /  1.6km/h 3.0mph /  4.8km/h 83% 0.00in /  0mm
08:20 60.3 °F /  15.7 °C 55.1 °F /  12.8 °C 30.20in /  1022.6hPa Calm   3.0mph /  4.8km/h 83% 0.00in /  0mm
08:25 60.9 °F /  16.1 °C 55.0 °F /  12.8 °C 30.20in /  1022.6hPa SSE 3.0mph /  4.8km/h 4.0mph /  6.4km/h 81% 0.00in /  0mm
08:30 61.3 °F /  16.3 °C 55.1 °F /  12.8 °C 30.20in /  1022.6hPa East 1.0mph /  1.6km/h 3.0mph /  4.8km/h 80% 0.00in /  0mm
08:35 61.5 °F /  16.4 °C 55.6 °F /  13.1 °C 30.20in /  1022.6hPa ESE 1.0mph /  1.6km/h 3.0mph /  4.8km/h 81% 0.00in /  0mm
08:40 62.4 °F /  16.9 °C 56.5 °F /  13.6 °C 30.20in /  1022.6hPa ESE 1.0mph /  1.6km/h 3.0mph /  4.8km/h 81% 0.00in /  0mm
08:45 63.0 °F /  17.2 °C 56.0 °F /  13.3 °C 30.20in /  1022.6hPa SE 1.0mph /  1.6km/h 3.0mph /  4.8km/h 78% 0.00in /  0mm
08:50 63.2 °F /  17.3 °C 55.9 °F /  13.3 °C 30.20in /  1022.6hPa Calm   2.0mph /  3.2km/h 77% 0.00in /  0mm
08:55 63.9 °F /  17.7 °C 56.5 °F /  13.6 °C 30.20in /  1022.6hPa Calm   2.0mph /  3.2km/h 77% 0.00in /  0mm
09:05 64.0 °F /  17.8 °C 55.9 °F /  13.3 °C 30.19in /  1022.2hPa SW 1.0mph /  1.6km/h 3.0mph /  4.8km/h 75% 0.00in /  0mm
09:10 64.1 °F /  17.8 °C 56.0 °F /  13.3 °C 30.19in /  1022.2hPa WSW 1.0mph /  1.6km/h 3.0mph /  4.8km/h 75% 0.00in /  0mm
09:15 65.1 °F /  18.4 °C 57.0 °F /  13.9 °C 30.19in /  1022.2hPa Calm   3.0mph /  4.8km/h 75% 0.00in /  0mm
09:20 65.8 °F /  18.8 °C 56.9 °F /  13.8 °C 30.19in /  1022.2hPa SW 1.0mph /  1.6km/h 3.0mph /  4.8km/h 73% 0.00in /  0mm
09:25 65.6 °F /  18.7 °C 55.9 °F /  13.3 °C 30.18in /  1021.9hPa WNW 1.0mph /  1.6km/h 3.0mph /  4.8km/h 71% 0.00in /  0mm
09:30 66.3 °F /  19.1 °C 56.6 °F /  13.7 °C 30.19in /  1022.2hPa West 1.0mph /  1.6km/h 4.0mph /  6.4km/h 71% 0.00in /  0mm
09:35 67.3 °F /  19.6 °C 56.8 °F /  13.8 °C 30.19in /  1022.2hPa West 2.0mph /  3.2km/h 4.0mph /  6.4km/h 69% 0.00in /  0mm
09:40 67.4 °F /  19.7 °C 56.9 °F /  13.8 °C 30.19in /  1022.2hPa West 1.0mph /  1.6km/h 4.0mph /  6.4km/h 69% 0.00in /  0mm
09:45 67.2 °F /  19.6 °C 56.3 °F /  13.5 °C 30.18in /  1021.9hPa SSW 1.0mph /  1.6km/h 4.0mph /  6.4km/h 68% 0.00in /  0mm
09:50 66.7 °F /  19.3 °C 56.6 °F /  13.7 °C 30.17in /  1021.6hPa SSE 1.0mph /  1.6km/h 4.0mph /  6.4km/h 70% 0.00in /  0mm
09:55 67.1 °F /  19.5 °C 56.2 °F /  13.4 °C 30.17in /  1021.6hPa SSE 2.0mph /  3.2km/h 4.0mph /  6.4km/h 68% 0.00in /  0mm
10:00 68.5 °F /  20.3 °C 58.3 °F /  14.6 °C 30.17in /  1021.6hPa South 2.0mph /  3.2km/h 4.0mph /  6.4km/h 70% 0.00in /  0mm
10:05 68.5 °F /  20.3 °C 56.7 °F /  13.7 °C 30.17in /  1021.6hPa Calm   6.0mph /  9.7km/h 66% 0.00in /  0mm
10:10 68.4 °F /  20.2 °C 57.4 °F /  14.1 °C 30.17in /  1021.6hPa SW 2.0mph /  3.2km/h 5.0mph /  8km/h 68% 0.00in /  0mm
10:15 68.8 °F /  20.4 °C 57.8 °F /  14.3 °C 30.17in /  1021.6hPa SW 4.0mph /  6.4km/h 4.0mph /  6.4km/h 68% 0.00in /  0mm
10:20 69.2 °F /  20.7 °C 58.2 °F /  14.6 °C 30.17in /  1021.6hPa WSW 3.0mph /  4.8km/h 5.0mph /  8km/h 68% 0.00in /  0mm
10:25 69.2 °F /  20.7 °C 57.8 °F /  14.3 °C 30.17in /  1021.6hPa SSW 5.0mph /  8km/h 5.0mph /  8km/h 67% 0.00in /  0mm
10:30 69.3 °F /  20.7 °C 57.5 °F /  14.2 °C 30.17in /  1021.6hPa WSW 3.0mph /  4.8km/h 5.0mph /  8km/h 66% 0.00in /  0mm
10:35 69.7 °F /  20.9 °C 57.4 °F /  14.1 °C 30.17in /  1021.6hPa SSW 3.0mph /  4.8km/h 6.0mph /  9.7km/h 65% 0.00in /  0mm
10:40 69.5 °F /  20.8 °C 57.2 °F /  14 °C 30.17in /  1021.6hPa SSW 2.0mph /  3.2km/h 6.0mph /  9.7km/h 65% 0.00in /  0mm
10:45 70.1 °F /  21.2 °C 58.2 °F /  14.6 °C 30.17in /  1021.6hPa SW 2.0mph /  3.2km/h 6.0mph /  9.7km/h 66% 0.00in /  0mm
10:50 70.3 °F /  21.3 °C 58.4 °F /  14.7 °C 30.18in /  1021.9hPa ESE 1.0mph /  1.6km/h 6.0mph /  9.7km/h 66% 0.00in /  0mm
10:55 70.7 °F /  21.5 °C 58.4 °F /  14.7 °C 30.18in /  1021.9hPa West 4.0mph /  6.4km/h 6.0mph /  9.7km/h 65% 0.00in /  0mm
11:00 70.6 °F /  21.4 °C 57.4 °F /  14.1 °C 30.18in /  1021.9hPa SW 3.0mph /  4.8km/h 8.0mph /  12.9km/h 63% 0.00in /  0mm
11:05 70.8 °F /  21.6 °C 57.6 °F /  14.2 °C 30.18in /  1021.9hPa WSW 4.0mph /  6.4km/h 8.0mph /  12.9km/h 63% 0.00in /  0mm
11:10 70.6 °F /  21.4 °C 57.4 °F /  14.1 °C 30.18in /  1021.9hPa West 4.0mph /  6.4km/h 9.0mph /  14.5km/h 63% 0.00in /  0mm
11:15 70.3 °F /  21.3 °C 57.1 °F /  13.9 °C 30.18in /  1021.9hPa WSW 4.0mph /  6.4km/h 9.0mph /  14.5km/h 63% 0.00in /  0mm
11:20 70.8 °F /  21.6 °C 57.1 °F /  13.9 °C 30.18in /  1021.9hPa SW 4.0mph /  6.4km/h 11.0mph /  17.7km/h 62% 0.00in /  0mm
11:25 70.7 °F /  21.5 °C 57.5 °F /  14.2 °C 30.17in /  1021.6hPa WSW 4.0mph /  6.4km/h 11.0mph /  17.7km/h 63% 0.00in /  0mm
11:30 70.8 °F /  21.6 °C 58.0 °F /  14.4 °C 30.17in /  1021.6hPa WNW 2.0mph /  3.2km/h 7.0mph /  11.3km/h 64% 0.00in /  0mm
11:35 70.7 °F /  21.5 °C 57.9 °F /  14.4 °C 30.17in /  1021.6hPa WSW 4.0mph /  6.4km/h 7.0mph /  11.3km/h 64% 0.00in /  0mm
11:40 70.7 °F /  21.5 °C 57.9 °F /  14.4 °C 30.17in /  1021.6hPa SW 4.0mph /  6.4km/h 6.0mph /  9.7km/h 64% 0.00in /  0mm
11:45 70.6 °F /  21.4 °C 57.4 °F /  14.1 °C 30.17in /  1021.6hPa SW 1.0mph /  1.6km/h 8.0mph /  12.9km/h 63% 0.00in /  0mm
11:50 71.2 °F /  21.8 °C 58.0 °F /  14.4 °C 30.16in /  1021.2hPa WSW 4.0mph /  6.4km/h 8.0mph /  12.9km/h 63% 0.00in /  0mm
11:55 71.0 °F /  21.7 °C 58.2 °F /  14.6 °C 30.16in /  1021.2hPa NNW 2.0mph /  3.2km/h 6.0mph /  9.7km/h 64% 0.00in /  0mm
12:00 71.2 °F /  21.8 °C 58.8 °F /  14.9 °C 30.16in /  1021.2hPa WNW 4.0mph /  6.4km/h 9.0mph /  14.5km/h 65% 0.00in /  0mm
12:05 71.2 °F /  21.8 °C 58.4 °F /  14.7 °C 30.16in /  1021.2hPa West 4.0mph /  6.4km/h 9.0mph /  14.5km/h 64% 0.00in /  0mm
12:10 70.9 °F /  21.6 °C 58.1 °F /  14.5 °C 30.15in /  1020.9hPa West 4.0mph /  6.4km/h 10.0mph /  16.1km/h 64% 0.00in /  0mm
12:15 71.0 °F /  21.7 °C 58.6 °F /  14.8 °C 30.15in /  1020.9hPa West 4.0mph /  6.4km/h 10.0mph /  16.1km/h 65% 0.00in /  0mm
12:20 70.8 °F /  21.6 °C 57.1 °F /  13.9 °C 30.15in /  1020.9hPa WSW 3.0mph /  4.8km/h 6.0mph /  9.7km/h 62% 0.00in /  0mm
12:25 70.6 °F /  21.4 °C 57.8 °F /  14.3 °C 30.15in /  1020.9hPa West 2.0mph /  3.2km/h 5.0mph /  8km/h 64% 0.00in /  0mm
12:30 71.3 °F /  21.8 °C 58.5 °F /  14.7 °C 30.15in /  1020.9hPa WNW 1.0mph /  1.6km/h 6.0mph /  9.7km/h 64% 0.00in /  0mm
12:35 71.0 °F /  21.7 °C 57.8 °F /  14.3 °C 30.15in /  1020.9hPa West 3.0mph /  4.8km/h 7.0mph /  11.3km/h 63% 0.00in /  0mm
12:40 71.4 °F /  21.9 °C 58.1 °F /  14.5 °C 30.15in /  1020.9hPa SW 2.0mph /  3.2km/h 7.0mph /  11.3km/h 63% 0.00in /  0mm
12:45 71.6 °F /  22 °C 57.4 °F /  14.1 °C 30.15in /  1020.9hPa SSW 3.0mph /  4.8km/h 7.0mph /  11.3km/h 61% 0.00in /  0mm
12:50 71.8 °F /  22.1 °C 59.0 °F /  15 °C 30.15in /  1020.9hPa WSW 3.0mph /  4.8km/h 8.0mph /  12.9km/h 64% 0.00in /  0mm
12:55 72.1 °F /  22.3 °C 57.4 °F /  14.1 °C 30.15in /  1020.9hPa West 4.0mph /  6.4km/h 7.0mph /  11.3km/h 60% 0.00in /  0mm
13:00 72.6 °F /  22.6 °C 58.8 °F /  14.9 °C 30.15in /  1020.9hPa WSW 3.0mph /  4.8km/h 7.0mph /  11.3km/h 62% 0.00in /  0mm
13:05 72.1 °F /  22.3 °C 58.8 °F /  14.9 °C 30.15in /  1020.9hPa WSW 3.0mph /  4.8km/h 6.0mph /  9.7km/h 63% 0.00in /  0mm
13:10 72.8 °F /  22.7 °C 59.5 °F /  15.3 °C 30.15in /  1020.9hPa West 3.0mph /  4.8km/h 6.0mph /  9.7km/h 63% 0.00in /  0mm
13:15 73.1 °F /  22.8 °C 59.8 °F /  15.4 °C 30.14in /  1020.5hPa West 1.0mph /  1.6km/h 6.0mph /  9.7km/h 63% 0.00in /  0mm
13:20 73.4 °F /  23 °C 59.1 °F /  15.1 °C 30.14in /  1020.5hPa WSW 3.0mph /  4.8km/h 7.0mph /  11.3km/h 61% 0.00in /  0mm
13:25 73.5 °F /  23.1 °C 58.8 °F /  14.9 °C 30.14in /  1020.5hPa SSW 4.0mph /  6.4km/h 10.0mph /  16.1km/h 60% 0.00in /  0mm
13:30 73.2 °F /  22.9 °C 59.4 °F /  15.2 °C 30.14in /  1020.5hPa WSW 7.0mph /  11.3km/h 10.0mph /  16.1km/h 62% 0.00in /  0mm
13:35 73.6 °F /  23.1 °C 60.2 °F /  15.7 °C 30.14in /  1020.5hPa WNW 2.0mph /  3.2km/h 7.0mph /  11.3km/h 63% 0.00in /  0mm
13:40 73.8 °F /  23.2 °C 61.3 °F /  16.3 °C 30.13in /  1020.2hPa WSW 4.0mph /  6.4km/h 9.0mph /  14.5km/h 65% 0.00in /  0mm
13:45 74.1 °F /  23.4 °C 59.8 °F /  15.4 °C 30.13in /  1020.2hPa WSW 4.0mph /  6.4km/h 9.0mph /  14.5km/h 61% 0.00in /  0mm
13:50 73.7 °F /  23.2 °C 60.3 °F /  15.7 °C 30.12in /  1019.9hPa WSW 4.0mph /  6.4km/h 6.0mph /  9.7km/h 63% 0.00in /  0mm
13:55 73.7 °F /  23.2 °C 60.3 °F /  15.7 °C 30.11in /  1019.5hPa WSW 5.0mph /  8km/h 6.0mph /  9.7km/h 63% 0.00in /  0mm
14:00 73.5 °F /  23.1 °C 60.6 °F /  15.9 °C 30.11in /  1019.5hPa SW 2.0mph /  3.2km/h 8.0mph /  12.9km/h 64% 0.00in /  0mm
14:05 74.6 °F /  23.7 °C 60.7 °F /  15.9 °C 30.11in /  1019.5hPa SSW 5.0mph /  8km/h 8.0mph /  12.9km/h 62% 0.00in /  0mm
14:10 74.5 °F /  23.6 °C 61.5 °F /  16.4 °C 30.10in /  1019.2hPa SSW 6.0mph /  9.7km/h 8.0mph /  12.9km/h 64% 0.00in /  0mm
14:15 75.6 °F /  24.2 °C 61.7 °F /  16.5 °C 30.10in /  1019.2hPa SSE 1.0mph /  1.6km/h 6.0mph /  9.7km/h 62% 0.00in /  0mm
14:20 76.1 °F /  24.5 °C 62.6 °F /  17 °C 30.09in /  1018.8hPa SSW 3.0mph /  4.8km/h 5.0mph /  8km/h 63% 0.00in /  0mm
14:25 76.2 °F /  24.6 °C 61.8 °F /  16.6 °C 30.09in /  1018.8hPa West 1.0mph /  1.6km/h 7.0mph /  11.3km/h 61% 0.00in /  0mm
14:30 76.4 °F /  24.7 °C 62.4 °F /  16.9 °C 30.09in /  1018.8hPa South 3.0mph /  4.8km/h 8.0mph /  12.9km/h 62% 0.00in /  0mm
14:35 76.7 °F /  24.8 °C 62.7 °F /  17.1 °C 30.09in /  1018.8hPa South 3.0mph /  4.8km/h 8.0mph /  12.9km/h 62% 0.00in /  0mm
14:40 77.0 °F /  25 °C 63.4 °F /  17.4 °C 30.08in /  1018.5hPa SSW 4.0mph /  6.4km/h 10.0mph /  16.1km/h 63% 0.00in /  0mm
14:45 76.9 °F /  24.9 °C 62.4 °F /  16.9 °C 30.08in /  1018.5hPa SW 7.0mph /  11.3km/h 8.0mph /  12.9km/h 61% 0.00in /  0mm
14:50 77.0 °F /  25 °C 62.5 °F /  16.9 °C 30.08in /  1018.5hPa SW 3.0mph /  4.8km/h 10.0mph /  16.1km/h 61% 0.00in /  0mm
14:55 77.2 °F /  25.1 °C 62.7 °F /  17.1 °C 30.08in /  1018.5hPa South 2.0mph /  3.2km/h 7.0mph /  11.3km/h 61% 0.00in /  0mm
15:00 76.5 °F /  24.7 °C 62.0 °F /  16.7 °C 30.07in /  1018.2hPa SSW 3.0mph /  4.8km/h 7.0mph /  11.3km/h 61% 0.00in /  0mm
15:05 76.2 °F /  24.6 °C 61.8 °F /  16.6 °C 30.08in /  1018.5hPa WSW 4.0mph /  6.4km/h 6.0mph /  9.7km/h 61% 0.00in /  0mm
15:10 77.7 °F /  25.4 °C 64.5 °F /  18.1 °C 30.07in /  1018.2hPa SSE 4.0mph /  6.4km/h 6.0mph /  9.7km/h 64% 0.00in /  0mm
15:15 77.3 °F /  25.2 °C 62.3 °F /  16.8 °C 30.07in /  1018.2hPa SW 4.0mph /  6.4km/h 7.0mph /  11.3km/h 60% 0.00in /  0mm
15:20 76.0 °F /  24.4 °C 61.6 °F /  16.4 °C 30.07in /  1018.2hPa West 1.0mph /  1.6km/h 7.0mph /  11.3km/h 61% 0.00in /  0mm
15:25 75.7 °F /  24.3 °C 61.3 °F /  16.3 °C 30.07in /  1018.2hPa WSW 3.0mph /  4.8km/h 7.0mph /  11.3km/h 61% 0.00in /  0mm
15:30 75.6 °F /  24.2 °C 61.7 °F /  16.5 °C 30.07in /  1018.2hPa WSW 3.0mph /  4.8km/h 7.0mph /  11.3km/h 62% 0.00in /  0mm
15:35 75.4 °F /  24.1 °C 61.9 °F /  16.6 °C 30.07in /  1018.2hPa WSW 3.0mph /  4.8km/h 7.0mph /  11.3km/h 63% 0.00in /  0mm
15:40 75.3 °F /  24.1 °C 61.8 °F /  16.6 °C 30.07in /  1018.2hPa WSW 2.0mph /  3.2km/h 6.0mph /  9.7km/h 63% 0.00in /  0mm
15:45 75.5 °F /  24.2 °C 62.9 °F /  17.2 °C 30.06in /  1017.8hPa West 1.0mph /  1.6km/h 6.0mph /  9.7km/h 65% 0.00in /  0mm
15:50 75.7 °F /  24.3 °C 63.1 °F /  17.3 °C 30.06in /  1017.8hPa WSW 2.0mph /  3.2km/h 6.0mph /  9.7km/h 65% 0.00in /  0mm
15:55 75.6 °F /  24.2 °C 62.1 °F /  16.7 °C 30.07in /  1018.2hPa WSW 3.0mph /  4.8km/h 6.0mph /  9.7km/h 63% 0.00in /  0mm
16:00 76.0 °F /  24.4 °C 62.0 °F /  16.7 °C 30.06in /  1017.8hPa West 3.0mph /  4.8km/h 7.0mph /  11.3km/h 62% 0.00in /  0mm
16:05 76.1 °F /  24.5 °C 63.0 °F /  17.2 °C 30.06in /  1017.8hPa West 3.0mph /  4.8km/h 7.0mph /  11.3km/h 64% 0.00in /  0mm
16:10 76.3 °F /  24.6 °C 62.8 °F /  17.1 °C 30.06in /  1017.8hPa Calm   5.0mph /  8km/h 63% 0.00in /  0mm
16:15 76.2 °F /  24.6 °C 62.2 °F /  16.8 °C 30.06in /  1017.8hPa NNW 2.0mph /  3.2km/h 5.0mph /  8km/h 62% 0.00in /  0mm
16:20 76.6 °F /  24.8 °C 63.5 °F /  17.5 °C 30.06in /  1017.8hPa West 2.0mph /  3.2km/h 5.0mph /  8km/h 64% 0.00in /  0mm
16:25 76.3 °F /  24.6 °C 62.3 °F /  16.8 °C 30.06in /  1017.8hPa West 2.0mph /  3.2km/h 5.0mph /  8km/h 62% 0.00in /  0mm
16:30 76.7 °F /  24.8 °C 62.2 °F /  16.8 °C 30.06in /  1017.8hPa West 3.0mph /  4.8km/h 8.0mph /  12.9km/h 61% 0.00in /  0mm
16:35 76.5 °F /  24.7 °C 63.0 °F /  17.2 °C 30.06in /  1017.8hPa WSW 3.0mph /  4.8km/h 8.0mph /  12.9km/h 63% 0.00in /  0mm
16:40 76.7 °F /  24.8 °C 63.2 °F /  17.3 °C 30.06in /  1017.8hPa NW 5.0mph /  8km/h 7.0mph /  11.3km/h 63% 0.00in /  0mm
16:45 76.0 °F /  24.4 °C 62.5 °F /  16.9 °C 30.06in /  1017.8hPa NW 4.0mph /  6.4km/h 5.0mph /  8km/h 63% 0.00in /  0mm
16:50 75.9 °F /  24.4 °C 62.8 °F /  17.1 °C 30.05in /  1017.5hPa Calm   6.0mph /  9.7km/h 64% 0.00in /  0mm
16:55 76.2 °F /  24.6 °C 63.6 °F /  17.6 °C 30.05in /  1017.5hPa WNW 2.0mph /  3.2km/h 6.0mph /  9.7km/h 65% 0.00in /  0mm
17:00 75.5 °F /  24.2 °C 62.9 °F /  17.2 °C 30.05in /  1017.5hPa West 2.0mph /  3.2km/h 6.0mph /  9.7km/h 65% 0.00in /  0mm
17:05 75.5 °F /  24.2 °C 62.9 °F /  17.2 °C 30.05in /  1017.5hPa West 2.0mph /  3.2km/h 6.0mph /  9.7km/h 65% 0.00in /  0mm
17:10 75.2 °F /  24 °C 63.1 °F /  17.3 °C 30.05in /  1017.5hPa WNW 2.0mph /  3.2km/h 5.0mph /  8km/h 66% 0.00in /  0mm
17:15 75.3 °F /  24.1 °C 62.7 °F /  17.1 °C 30.05in /  1017.5hPa WNW 3.0mph /  4.8km/h 6.0mph /  9.7km/h 65% 0.00in /  0mm
17:20 75.1 °F /  23.9 °C 62.5 °F /  16.9 °C 30.05in /  1017.5hPa WNW 4.0mph /  6.4km/h 7.0mph /  11.3km/h 65% 0.00in /  0mm
17:25 75.2 °F /  24 °C 63.5 °F /  17.5 °C 30.05in /  1017.5hPa West 1.0mph /  1.6km/h 6.0mph /  9.7km/h 67% 0.00in /  0mm
17:30 75.0 °F /  23.9 °C 62.4 °F /  16.9 °C 30.05in /  1017.5hPa NNW 1.0mph /  1.6km/h 5.0mph /  8km/h 65% 0.00in /  0mm
17:35 75.1 °F /  23.9 °C 63.4 °F /  17.4 °C 30.05in /  1017.5hPa WNW 3.0mph /  4.8km/h 6.0mph /  9.7km/h 67% 0.00in /  0mm
17:40 75.0 °F /  23.9 °C 62.9 °F /  17.2 °C 30.05in /  1017.5hPa West 3.0mph /  4.8km/h 6.0mph /  9.7km/h 66% 0.00in /  0mm
17:45 74.9 °F /  23.8 °C 62.8 °F /  17.1 °C 30.05in /  1017.5hPa WNW 5.0mph /  8km/h 7.0mph /  11.3km/h 66% 0.00in /  0mm
17:50 74.6 °F /  23.7 °C 62.9 °F /  17.2 °C 30.05in /  1017.5hPa WNW 1.0mph /  1.6km/h 6.0mph /  9.7km/h 67% 0.00in /  0mm
17:55 74.7 °F /  23.7 °C 63.4 °F /  17.4 °C 30.05in /  1017.5hPa WNW 3.0mph /  4.8km/h 7.0mph /  11.3km/h 68% 0.00in /  0mm
18:00 74.7 °F /  23.7 °C 63.0 °F /  17.2 °C 30.05in /  1017.5hPa West 1.0mph /  1.6km/h 5.0mph /  8km/h 67% 0.00in /  0mm
18:05 74.7 °F /  23.7 °C 63.0 °F /  17.2 °C 30.05in /  1017.5hPa West 2.0mph /  3.2km/h 5.0mph /  8km/h 67% 0.00in /  0mm
18:10 74.6 °F /  23.7 °C 63.3 °F /  17.4 °C 30.05in /  1017.5hPa West 2.0mph /  3.2km/h 5.0mph /  8km/h 68% 0.00in /  0mm
18:15 74.4 °F /  23.6 °C 63.6 °F /  17.6 °C 30.05in /  1017.5hPa West 4.0mph /  6.4km/h 5.0mph /  8km/h 69% 0.00in /  0mm
18:20 74.4 °F /  23.6 °C 63.1 °F /  17.3 °C 30.05in /  1017.5hPa West 5.0mph /  8km/h 6.0mph /  9.7km/h 68% 0.00in /  0mm
18:25 74.2 °F /  23.4 °C 63.0 °F /  17.2 °C 30.05in /  1017.5hPa WNW 4.0mph /  6.4km/h 8.0mph /  12.9km/h 68% 0.00in /  0mm
18:30 74.0 °F /  23.3 °C 62.8 °F /  17.1 °C 30.06in /  1017.8hPa WNW 3.0mph /  4.8km/h 8.0mph /  12.9km/h 68% 0.00in /  0mm
18:35 73.9 °F /  23.3 °C 63.1 °F /  17.3 °C 30.06in /  1017.8hPa WNW 3.0mph /  4.8km/h 6.0mph /  9.7km/h 69% 0.00in /  0mm
18:40 73.8 °F /  23.2 °C 63.0 °F /  17.2 °C 30.06in /  1017.8hPa WNW 3.0mph /  4.8km/h 6.0mph /  9.7km/h 69% 0.00in /  0mm
18:45 73.7 °F /  23.2 °C 62.5 °F /  16.9 °C 30.06in /  1017.8hPa West 3.0mph /  4.8km/h 6.0mph /  9.7km/h 68% 0.00in /  0mm
18:50 73.6 °F /  23.1 °C 62.4 °F /  16.9 °C 30.06in /  1017.8hPa WNW 5.0mph /  8km/h 7.0mph /  11.3km/h 68% 0.00in /  0mm
18:55 73.5 °F /  23.1 °C 62.3 °F /  16.8 °C 30.06in /  1017.8hPa WNW 4.0mph /  6.4km/h 9.0mph /  14.5km/h 68% 0.00in /  0mm
19:00 73.4 °F /  23 °C 62.2 °F /  16.8 °C 30.06in /  1017.8hPa WNW 5.0mph /  8km/h 7.0mph /  11.3km/h 68% 0.00in /  0mm
19:05 73.3 °F /  22.9 °C 62.1 °F /  16.7 °C 30.07in /  1018.2hPa WNW 3.0mph /  4.8km/h 6.0mph /  9.7km/h 68% 0.00in /  0mm
19:10 73.3 °F /  22.9 °C 61.7 °F /  16.5 °C 30.07in /  1018.2hPa West 3.0mph /  4.8km/h 8.0mph /  12.9km/h 67% 0.00in /  0mm
19:15 73.2 °F /  22.9 °C 61.6 °F /  16.4 °C 30.07in /  1018.2hPa WNW 4.0mph /  6.4km/h 6.0mph /  9.7km/h 67% 0.00in /  0mm
19:20 73.1 °F /  22.8 °C 61.5 °F /  16.4 °C 30.07in /  1018.2hPa WNW 5.0mph /  8km/h 6.0mph /  9.7km/h 67% 0.00in /  0mm
19:25 73.0 °F /  22.8 °C 61.4 °F /  16.3 °C 30.07in /  1018.2hPa West 3.0mph /  4.8km/h 7.0mph /  11.3km/h 67% 0.00in /  0mm
19:30 73.1 °F /  22.8 °C 61.1 °F /  16.2 °C 30.07in /  1018.2hPa West 3.0mph /  4.8km/h 7.0mph /  11.3km/h 66% 0.00in /  0mm
19:35 73.3 °F /  22.9 °C 61.7 °F /  16.5 °C 30.07in /  1018.2hPa West 2.0mph /  3.2km/h 5.0mph /  8km/h 67% 0.00in /  0mm
19:40 73.2 °F /  22.9 °C 60.7 °F /  15.9 °C 30.06in /  1017.8hPa West 2.0mph /  3.2km/h 6.0mph /  9.7km/h 65% 0.00in /  0mm
19:45 73.0 °F /  22.8 °C 60.5 °F /  15.8 °C 30.06in /  1017.8hPa WNW 1.0mph /  1.6km/h 6.0mph /  9.7km/h 65% 0.00in /  0mm
19:50 72.8 °F /  22.7 °C 60.3 °F /  15.7 °C 30.06in /  1017.8hPa Calm   4.0mph /  6.4km/h 65% 0.00in /  0mm
19:55 72.8 °F /  22.7 °C 59.9 °F /  15.5 °C 30.06in /  1017.8hPa West 1.0mph /  1.6km/h 4.0mph /  6.4km/h 64% 0.00in /  0mm
20:05 72.4 °F /  22.4 °C 60.0 °F /  15.6 °C 30.06in /  1017.8hPa WNW 2.0mph /  3.2km/h 3.0mph /  4.8km/h 65% 0.00in /  0mm
20:10 72.2 °F /  22.3 °C 59.8 °F /  15.4 °C 30.07in /  1018.2hPa West 2.0mph /  3.2km/h 5.0mph /  8km/h 65% 0.00in /  0mm
20:15 72.2 °F /  22.3 °C 59.3 °F /  15.2 °C 30.07in /  1018.2hPa WSW 4.0mph /  6.4km/h 5.0mph /  8km/h 64% 0.00in /  0mm
20:20 72.2 °F /  22.3 °C 59.3 °F /  15.2 °C 30.07in /  1018.2hPa West 2.0mph /  3.2km/h 5.0mph /  8km/h 64% 0.00in /  0mm
20:25 72.1 °F /  22.3 °C 59.2 °F /  15.1 °C 30.07in /  1018.2hPa West 2.0mph /  3.2km/h 5.0mph /  8km/h 64% 0.00in /  0mm
20:30 72.1 °F /  22.3 °C 59.2 °F /  15.1 °C 30.06in /  1017.8hPa West 2.0mph /  3.2km/h 5.0mph /  8km/h 64% 0.00in /  0mm
20:35 71.9 °F /  22.2 °C 59.1 °F /  15.1 °C 30.06in /  1017.8hPa West 2.0mph /  3.2km/h 5.0mph /  8km/h 64% 0.00in /  0mm
20:40 71.9 °F /  22.2 °C 59.1 °F /  15.1 °C 30.06in /  1017.8hPa West 2.0mph /  3.2km/h 4.0mph /  6.4km/h 64% 0.00in /  0mm
20:45 71.8 °F /  22.1 °C 59.0 °F /  15 °C 30.06in /  1017.8hPa West 2.0mph /  3.2km/h 4.0mph /  6.4km/h 64% 0.00in /  0mm
20:50 71.5 °F /  21.9 °C 58.7 °F /  14.8 °C 30.06in /  1017.8hPa West 2.0mph /  3.2km/h 3.0mph /  4.8km/h 64% 0.00in /  0mm
20:55 71.5 °F /  21.9 °C 58.7 °F /  14.8 °C 30.05in /  1017.5hPa SW 2.0mph /  3.2km/h 4.0mph /  6.4km/h 64% 0.00in /  0mm
21:00 71.3 °F /  21.8 °C 58.9 °F /  14.9 °C 30.05in /  1017.5hPa Calm   3.0mph /  4.8km/h 65% 0.00in /  0mm
21:05 71.2 °F /  21.8 °C 59.3 °F /  15.2 °C 30.05in /  1017.5hPa Calm   2.0mph /  3.2km/h 66% 0.00in /  0mm
21:10 71.1 °F /  21.7 °C 58.7 °F /  14.8 °C 30.04in /  1017.2hPa SW 1.0mph /  1.6km/h 3.0mph /  4.8km/h 65% 0.00in /  0mm
21:15 71.0 °F /  21.7 °C 59.1 °F /  15.1 °C 30.03in /  1016.8hPa South 3.0mph /  4.8km/h 5.0mph /  8km/h 66% 0.00in /  0mm
21:20 71.2 °F /  21.8 °C 60.5 °F /  15.8 °C 30.04in /  1017.2hPa Calm   6.0mph /  9.7km/h 69% 0.00in /  0mm
21:25 71.3 °F /  21.8 °C 61.4 °F /  16.3 °C 30.04in /  1017.2hPa South 2.0mph /  3.2km/h 6.0mph /  9.7km/h 71% 0.00in /  0mm
21:30 71.2 °F /  21.8 °C 61.7 °F /  16.5 °C 30.04in /  1017.2hPa South 1.0mph /  1.6km/h 3.0mph /  4.8km/h 72% 0.00in /  0mm
21:35 71.0 °F /  21.7 °C 62.3 °F /  16.8 °C 30.03in /  1016.8hPa SSW 1.0mph /  1.6km/h 7.0mph /  11.3km/h 74% 0.00in /  0mm
21:40 70.8 °F /  21.6 °C 62.5 °F /  16.9 °C 30.03in /  1016.8hPa South 2.0mph /  3.2km/h 7.0mph /  11.3km/h 75% 0.00in /  0mm
21:45 70.8 °F /  21.6 °C 62.9 °F /  17.2 °C 30.03in /  1016.8hPa South 2.0mph /  3.2km/h 5.0mph /  8km/h 76% 0.00in /  0mm
21:50 70.7 °F /  21.5 °C 62.8 °F /  17.1 °C 30.02in /  1016.5hPa South 2.0mph /  3.2km/h 7.0mph /  11.3km/h 76% 0.00in /  0mm
22:00 70.5 °F /  21.4 °C 62.6 °F /  17 °C 30.00in /  1015.8hPa SE 5.0mph /  8km/h 11.0mph /  17.7km/h 76% 0.00in /  0mm
22:05 70.3 °F /  21.3 °C 63.1 °F /  17.3 °C 30.01in /  1016.1hPa SSW 4.0mph /  6.4km/h 9.0mph /  14.5km/h 78% 0.00in /  0mm
22:10 70.0 °F /  21.1 °C 62.8 °F /  17.1 °C 30.02in /  1016.5hPa SW 1.0mph /  1.6km/h 8.0mph /  12.9km/h 78% 0.00in /  0mm
22:15 69.8 °F /  21 °C 63.0 °F /  17.2 °C 30.01in /  1016.1hPa SW 3.0mph /  4.8km/h 5.0mph /  8km/h 79% 0.00in /  0mm
22:20 69.6 °F /  20.9 °C 63.2 °F /  17.3 °C 30.01in /  1016.1hPa SW 1.0mph /  1.6km/h 5.0mph /  8km/h 80% 0.00in /  0mm
22:25 69.5 °F /  20.8 °C 63.1 °F /  17.3 °C 30.01in /  1016.1hPa SSW 2.0mph /  3.2km/h 5.0mph /  8km/h 80% 0.00in /  0mm
22:30 69.4 °F /  20.8 °C 63.0 °F /  17.2 °C 30.01in /  1016.1hPa SW 1.0mph /  1.6km/h 6.0mph /  9.7km/h 80% 0.00in /  0mm
22:35 69.5 °F /  20.8 °C 62.7 °F /  17.1 °C 30.01in /  1016.1hPa Calm   5.0mph /  8km/h 79% 0.00in /  0mm
22:40 69.5 °F /  20.8 °C 62.3 °F /  16.8 °C 30.01in /  1016.1hPa SSW 1.0mph /  1.6km/h 5.0mph /  8km/h 78% 0.00in /  0mm
22:45 69.5 °F /  20.8 °C 62.3 °F /  16.8 °C 30.02in /  1016.5hPa WSW 1.0mph /  1.6km/h 2.0mph /  3.2km/h 78% 0.00in /  0mm
22:50 69.5 °F /  20.8 °C 62.3 °F /  16.8 °C 30.01in /  1016.1hPa WSW 1.0mph /  1.6km/h 3.0mph /  4.8km/h 78% 0.00in /  0mm
22:55 69.5 °F /  20.8 °C 62.3 °F /  16.8 °C 30.01in /  1016.1hPa Calm   3.0mph /  4.8km/h 78% 0.00in /  0mm
23:00 69.4 °F /  20.8 °C 62.2 °F /  16.8 °C 30.01in /  1016.1hPa Calm   3.0mph /  4.8km/h 78% 0.00in /  0mm
23:05 69.2 °F /  20.7 °C 61.7 °F /  16.5 °C 30.00in /  1015.8hPa SSW 2.0mph /  3.2km/h 7.0mph /  11.3km/h 77% 0.00in /  0mm
23:10 69.3 °F /  20.7 °C 61.4 °F /  16.3 °C 30.00in /  1015.8hPa SSW 2.0mph /  3.2km/h 5.0mph /  8km/h 76% 0.00in /  0mm
23:15 69.3 °F /  20.7 °C 61.0 °F /  16.1 °C 30.00in /  1015.8hPa SSW 1.0mph /  1.6km/h 5.0mph /  8km/h 75% 0.00in /  0mm
23:20 69.3 °F /  20.7 °C 61.0 °F /  16.1 °C 30.00in /  1015.8hPa SSW 2.0mph /  3.2km/h 5.0mph /  8km/h 75% 0.00in /  0mm
23:25 69.3 °F /  20.7 °C 61.0 °F /  16.1 °C 29.99in /  1015.5hPa SSW 2.0mph /  3.2km/h 5.0mph /  8km/h 75% 0.00in /  0mm
23:30 69.3 °F /  20.7 °C 60.7 °F /  15.9 °C 29.99in /  1015.5hPa SSW 2.0mph /  3.2km/h 6.0mph /  9.7km/h 74% 0.00in /  0mm
23:35 69.3 °F /  20.7 °C 60.7 °F /  15.9 °C 29.99in /  1015.5hPa SSW 1.0mph /  1.6km/h 5.0mph /  8km/h 74% 0.00in /  0mm
23:40 69.3 °F /  20.7 °C 60.7 °F /  15.9 °C 29.99in /  1015.5hPa SSW 2.0mph /  3.2km/h 8.0mph /  12.9km/h 74% 0.00in /  0mm
23:45 69.2 °F /  20.7 °C 60.6 °F /  15.9 °C 29.99in /  1015.5hPa SW 3.0mph /  4.8km/h 8.0mph /  12.9km/h 74% 0.00in /  0mm
23:50 69.2 °F /  20.7 °C 60.6 °F /  15.9 °C 29.99in /  1015.5hPa SW 1.0mph /  1.6km/h 4.0mph /  6.4km/h 74% 0.00in /  0mm
23:55 69.1 °F /  20.6 °C 60.5 °F /  15.8 °C 29.99in /  1015.5hPa SW 1.0mph /  1.6km/h 5.0mph /  8km/h 74% 0.00in /  0mm
Buffalo, New York, USA
Compliments of Weather Underground - 2.5 mb